sensor_id;sensor_type;location;lat;lon;timestamp;P1;durP1;ratioP1;P2;durP2;ratioP2
37903;SDS011;23738;50.422;18.758;2023-03-29T00:01:54;54.30;;;22.50;;
37903;SDS011;23738;50.422;18.758;2023-03-29T00:04:23;57.40;;;22.20;;
37903;SDS011;23738;50.422;18.758;2023-03-29T00:06:54;52.10;;;21.90;;
37903;SDS011;23738;50.422;18.758;2023-03-29T00:09:23;48.50;;;19.90;;
37903;SDS011;23738;50.422;18.758;2023-03-29T00:11:53;49.20;;;19.80;;
37903;SDS011;23738;50.422;18.758;2023-03-29T00:14:22;40.40;;;18.70;;
37903;SDS011;23738;50.422;18.758;2023-03-29T00:16:52;43.50;;;19.00;;
37903;SDS011;23738;50.422;18.758;2023-03-29T00:19:21;36.20;;;16.90;;
37903;SDS011;23738;50.422;18.758;2023-03-29T00:21:50;29.00;;;14.60;;
37903;SDS011;23738;50.422;18.758;2023-03-29T00:24:20;34.90;;;16.60;;
37903;SDS011;23738;50.422;18.758;2023-03-29T00:26:49;40.50;;;18.20;;
37903;SDS011;23738;50.422;18.758;2023-03-29T00:29:18;49.60;;;21.90;;
37903;SDS011;23738;50.422;18.758;2023-03-29T00:31:47;66.60;;;27.70;;
37903;SDS011;23738;50.422;18.758;2023-03-29T00:34:19;58.80;;;25.70;;
37903;SDS011;23738;50.422;18.758;2023-03-29T00:36:49;56.10;;;25.20;;
37903;SDS011;23738;50.422;18.758;2023-03-29T00:39:23;41.10;;;20.80;;
37903;SDS011;23738;50.422;18.758;2023-03-29T00:41:54;51.30;;;22.40;;
37903;SDS011;23738;50.422;18.758;2023-03-29T00:47:25;45.40;;;21.10;;
37903;SDS011;23738;50.422;18.758;2023-03-29T00:49:59;55.00;;;23.20;;
37903;SDS011;23738;50.422;18.758;2023-03-29T00:52:33;64.80;;;25.90;;
37903;SDS011;23738;50.422;18.758;2023-03-29T00:55:05;77.80;;;27.50;;
37903;SDS011;23738;50.422;18.758;2023-03-29T00:57:39;81.10;;;30.40;;
37903;SDS011;23738;50.422;18.758;2023-03-29T01:00:12;65.40;;;24.80;;
37903;SDS011;23738;50.422;18.758;2023-03-29T01:02:46;62.20;;;24.90;;
37903;SDS011;23738;50.422;18.758;2023-03-29T01:05:26;68.20;;;26.10;;
37903;SDS011;23738;50.422;18.758;2023-03-29T01:07:59;70.50;;;27.80;;
37903;SDS011;23738;50.422;18.758;2023-03-29T01:10:33;60.60;;;24.50;;
37903;SDS011;23738;50.422;18.758;2023-03-29T01:13:06;56.40;;;22.10;;
37903;SDS011;23738;50.422;18.758;2023-03-29T01:15:39;60.80;;;24.90;;
37903;SDS011;23738;50.422;18.758;2023-03-29T01:18:12;62.10;;;23.90;;
37903;SDS011;23738;50.422;18.758;2023-03-29T01:20:44;85.90;;;33.10;;
37903;SDS011;23738;50.422;18.758;2023-03-29T01:23:25;77.10;;;31.70;;
37903;SDS011;23738;50.422;18.758;2023-03-29T01:26:07;64.00;;;25.60;;
37903;SDS011;23738;50.422;18.758;2023-03-29T01:28:43;60.50;;;24.60;;
37903;SDS011;23738;50.422;18.758;2023-03-29T01:31:18;84.90;;;32.60;;
37903;SDS011;23738;50.422;18.758;2023-03-29T01:33:52;73.80;;;29.40;;
37903;SDS011;23738;50.422;18.758;2023-03-29T01:36:28;58.30;;;24.00;;
37903;SDS011;23738;50.422;18.758;2023-03-29T01:39:02;52.30;;;21.20;;
37903;SDS011;23738;50.422;18.758;2023-03-29T01:41:34;60.20;;;22.90;;
37903;SDS011;23738;50.422;18.758;2023-03-29T01:44:14;59.60;;;22.40;;
37903;SDS011;23738;50.422;18.758;2023-03-29T01:46:50;56.20;;;21.60;;
37903;SDS011;23738;50.422;18.758;2023-03-29T01:49:24;56.70;;;22.70;;
37903;SDS011;23738;50.422;18.758;2023-03-29T01:52:00;54.20;;;23.20;;
37903;SDS011;23738;50.422;18.758;2023-03-29T01:54:35;57.90;;;25.00;;
37903;SDS011;23738;50.422;18.758;2023-03-29T01:57:07;61.20;;;25.10;;
37903;SDS011;23738;50.422;18.758;2023-03-29T01:59:41;54.90;;;24.80;;
37903;SDS011;23738;50.422;18.758;2023-03-29T02:02:13;57.00;;;23.80;;
37903;SDS011;23738;50.422;18.758;2023-03-29T02:04:46;60.10;;;26.30;;
37903;SDS011;23738;50.422;18.758;2023-03-29T02:07:20;66.00;;;26.20;;
37903;SDS011;23738;50.422;18.758;2023-03-29T02:09:55;67.60;;;26.10;;
37903;SDS011;23738;50.422;18.758;2023-03-29T02:12:26;62.50;;;26.00;;
37903;SDS011;23738;50.422;18.758;2023-03-29T02:14:55;62.90;;;23.90;;
37903;SDS011;23738;50.422;18.758;2023-03-29T02:17:26;58.50;;;24.60;;
37903;SDS011;23738;50.422;18.758;2023-03-29T02:19:57;58.20;;;23.60;;
37903;SDS011;23738;50.422;18.758;2023-03-29T02:22:41;58.20;;;22.90;;
37903;SDS011;23738;50.422;18.758;2023-03-29T02:25:16;49.00;;;20.40;;
37903;SDS011;23738;50.422;18.758;2023-03-29T02:27:47;59.00;;;22.20;;
37903;SDS011;23738;50.422;18.758;2023-03-29T02:30:18;60.30;;;22.70;;
37903;SDS011;23738;50.422;18.758;2023-03-29T02:32:51;59.90;;;23.30;;
37903;SDS011;23738;50.422;18.758;2023-03-29T02:35:29;56.50;;;23.30;;
37903;SDS011;23738;50.422;18.758;2023-03-29T02:38:03;75.60;;;27.60;;
37903;SDS011;23738;50.422;18.758;2023-03-29T02:40:35;69.00;;;26.30;;
37903;SDS011;23738;50.422;18.758;2023-03-29T02:43:07;79.70;;;28.40;;
37903;SDS011;23738;50.422;18.758;2023-03-29T02:45:38;80.00;;;28.50;;
37903;SDS011;23738;50.422;18.758;2023-03-29T02:48:09;73.00;;;29.20;;
37903;SDS011;23738;50.422;18.758;2023-03-29T02:50:42;84.30;;;33.00;;
37903;SDS011;23738;50.422;18.758;2023-03-29T02:53:15;77.70;;;30.50;;
37903;SDS011;23738;50.422;18.758;2023-03-29T02:55:48;88.30;;;31.20;;
37903;SDS011;23738;50.422;18.758;2023-03-29T02:58:18;64.30;;;25.40;;
37903;SDS011;23738;50.422;18.758;2023-03-29T03:00:54;59.40;;;25.90;;
37903;SDS011;23738;50.422;18.758;2023-03-29T03:03:26;51.90;;;24.20;;
37903;SDS011;23738;50.422;18.758;2023-03-29T03:05:55;68.50;;;26.70;;
37903;SDS011;23738;50.422;18.758;2023-03-29T03:08:27;59.40;;;24.70;;
37903;SDS011;23738;50.422;18.758;2023-03-29T03:10:56;54.40;;;22.30;;
37903;SDS011;23738;50.422;18.758;2023-03-29T03:13:26;53.80;;;22.50;;
37903;SDS011;23738;50.422;18.758;2023-03-29T03:15:55;66.50;;;24.50;;
37903;SDS011;23738;50.422;18.758;2023-03-29T03:18:26;62.50;;;24.00;;
37903;SDS011;23738;50.422;18.758;2023-03-29T03:20:56;61.70;;;25.20;;
37903;SDS011;23738;50.422;18.758;2023-03-29T03:23:27;59.60;;;23.10;;
37903;SDS011;23738;50.422;18.758;2023-03-29T03:25:57;68.60;;;25.10;;
37903;SDS011;23738;50.422;18.758;2023-03-29T03:28:27;60.40;;;24.50;;
37903;SDS011;23738;50.422;18.758;2023-03-29T03:30:57;67.10;;;26.90;;
37903;SDS011;23738;50.422;18.758;2023-03-29T03:33:27;68.80;;;28.70;;
37903;SDS011;23738;50.422;18.758;2023-03-29T03:35:56;64.30;;;26.30;;
37903;SDS011;23738;50.422;18.758;2023-03-29T03:38:28;69.90;;;28.00;;
37903;SDS011;23738;50.422;18.758;2023-03-29T03:40:57;68.80;;;30.00;;
37903;SDS011;23738;50.422;18.758;2023-03-29T03:43:27;62.60;;;28.70;;
37903;SDS011;23738;50.422;18.758;2023-03-29T03:45:57;57.10;;;26.00;;
37903;SDS011;23738;50.422;18.758;2023-03-29T03:48:26;63.90;;;28.20;;
37903;SDS011;23738;50.422;18.758;2023-03-29T03:50:56;65.00;;;28.30;;
37903;SDS011;23738;50.422;18.758;2023-03-29T03:53:26;59.10;;;25.90;;
37903;SDS011;23738;50.422;18.758;2023-03-29T03:55:55;51.40;;;23.50;;
37903;SDS011;23738;50.422;18.758;2023-03-29T03:58:27;50.70;;;24.10;;
37903;SDS011;23738;50.422;18.758;2023-03-29T04:00:56;58.70;;;23.00;;
37903;SDS011;23738;50.422;18.758;2023-03-29T04:03:27;50.90;;;20.40;;
37903;SDS011;23738;50.422;18.758;2023-03-29T04:05:58;52.50;;;21.20;;
37903;SDS011;23738;50.422;18.758;2023-03-29T04:08:28;47.20;;;19.20;;
37903;SDS011;23738;50.422;18.758;2023-03-29T04:10:57;41.40;;;18.20;;
37903;SDS011;23738;50.422;18.758;2023-03-29T04:13:27;46.30;;;18.80;;
37903;SDS011;23738;50.422;18.758;2023-03-29T04:15:56;43.70;;;19.90;;
37903;SDS011;23738;50.422;18.758;2023-03-29T04:18:26;47.10;;;21.10;;
37903;SDS011;23738;50.422;18.758;2023-03-29T04:20:55;47.30;;;22.50;;
37903;SDS011;23738;50.422;18.758;2023-03-29T04:23:25;55.20;;;20.70;;
37903;SDS011;23738;50.422;18.758;2023-03-29T04:25:54;50.90;;;21.90;;
37903;SDS011;23738;50.422;18.758;2023-03-29T04:28:24;53.00;;;21.80;;
37903;SDS011;23738;50.422;18.758;2023-03-29T04:30:54;51.00;;;22.50;;
37903;SDS011;23738;50.422;18.758;2023-03-29T04:33:23;54.50;;;25.30;;
37903;SDS011;23738;50.422;18.758;2023-03-29T04:35:54;72.50;;;31.70;;
37903;SDS011;23738;50.422;18.758;2023-03-29T04:38:24;70.00;;;31.20;;
37903;SDS011;23738;50.422;18.758;2023-03-29T04:40:53;60.70;;;27.10;;
37903;SDS011;23738;50.422;18.758;2023-03-29T04:43:23;74.10;;;31.20;;
37903;SDS011;23738;50.422;18.758;2023-03-29T04:45:53;55.50;;;25.90;;
37903;SDS011;23738;50.422;18.758;2023-03-29T04:48:23;69.30;;;27.80;;
37903;SDS011;23738;50.422;18.758;2023-03-29T04:50:54;59.80;;;26.50;;
37903;SDS011;23738;50.422;18.758;2023-03-29T04:53:23;61.00;;;26.80;;
37903;SDS011;23738;50.422;18.758;2023-03-29T04:55:52;65.50;;;28.10;;
37903;SDS011;23738;50.422;18.758;2023-03-29T04:58:23;70.30;;;27.40;;
37903;SDS011;23738;50.422;18.758;2023-03-29T05:00:55;74.20;;;30.40;;
37903;SDS011;23738;50.422;18.758;2023-03-29T05:03:24;67.50;;;27.70;;
37903;SDS011;23738;50.422;18.758;2023-03-29T05:05:54;76.10;;;28.80;;
37903;SDS011;23738;50.422;18.758;2023-03-29T05:08:32;68.60;;;25.90;;
37903;SDS011;23738;50.422;18.758;2023-03-29T05:11:04;71.40;;;28.90;;
37903;SDS011;23738;50.422;18.758;2023-03-29T05:13:35;97.20;;;37.80;;
37903;SDS011;23738;50.422;18.758;2023-03-29T05:16:06;108.50;;;44.30;;
37903;SDS011;23738;50.422;18.758;2023-03-29T05:18:36;112.50;;;48.00;;
37903;SDS011;23738;50.422;18.758;2023-03-29T05:21:06;155.40;;;65.30;;
37903;SDS011;23738;50.422;18.758;2023-03-29T05:23:35;161.00;;;74.00;;
37903;SDS011;23738;50.422;18.758;2023-03-29T05:26:05;163.70;;;79.60;;
37903;SDS011;23738;50.422;18.758;2023-03-29T05:28:35;166.50;;;82.20;;
37903;SDS011;23738;50.422;18.758;2023-03-29T05:31:05;139.70;;;56.70;;
37903;SDS011;23738;50.422;18.758;2023-03-29T05:33:35;110.20;;;49.60;;
37903;SDS011;23738;50.422;18.758;2023-03-29T05:36:06;127.50;;;55.80;;
37903;SDS011;23738;50.422;18.758;2023-03-29T05:38:39;110.70;;;51.10;;
37903;SDS011;23738;50.422;18.758;2023-03-29T05:41:10;111.20;;;48.90;;
37903;SDS011;23738;50.422;18.758;2023-03-29T05:43:41;102.90;;;45.80;;
37903;SDS011;23738;50.422;18.758;2023-03-29T05:46:11;118.00;;;47.10;;
37903;SDS011;23738;50.422;18.758;2023-03-29T05:48:40;104.20;;;43.00;;
37903;SDS011;23738;50.422;18.758;2023-03-29T05:51:10;124.00;;;46.20;;
37903;SDS011;23738;50.422;18.758;2023-03-29T05:53:40;104.80;;;39.50;;
37903;SDS011;23738;50.422;18.758;2023-03-29T05:56:10;101.20;;;39.60;;
37903;SDS011;23738;50.422;18.758;2023-03-29T05:58:41;106.70;;;41.10;;
37903;SDS011;23738;50.422;18.758;2023-03-29T06:01:12;104.20;;;41.80;;
37903;SDS011;23738;50.422;18.758;2023-03-29T06:03:43;93.90;;;39.20;;
37903;SDS011;23738;50.422;18.758;2023-03-29T06:06:12;101.00;;;40.50;;
37903;SDS011;23738;50.422;18.758;2023-03-29T06:08:42;90.50;;;40.80;;
37903;SDS011;23738;50.422;18.758;2023-03-29T06:11:12;107.90;;;43.30;;
37903;SDS011;23738;50.422;18.758;2023-03-29T06:13:42;94.60;;;41.80;;
37903;SDS011;23738;50.422;18.758;2023-03-29T06:16:12;94.80;;;37.00;;
37903;SDS011;23738;50.422;18.758;2023-03-29T06:18:41;93.20;;;35.00;;
37903;SDS011;23738;50.422;18.758;2023-03-29T06:21:11;77.00;;;33.30;;
37903;SDS011;23738;50.422;18.758;2023-03-29T06:23:40;89.70;;;34.50;;
37903;SDS011;23738;50.422;18.758;2023-03-29T06:26:10;95.10;;;36.80;;
37903;SDS011;23738;50.422;18.758;2023-03-29T06:28:39;91.60;;;36.00;;
37903;SDS011;23738;50.422;18.758;2023-03-29T06:31:09;74.10;;;32.50;;
37903;SDS011;23738;50.422;18.758;2023-03-29T06:33:39;78.20;;;33.90;;
37903;SDS011;23738;50.422;18.758;2023-03-29T06:36:09;73.50;;;32.80;;
37903;SDS011;23738;50.422;18.758;2023-03-29T06:38:41;77.70;;;32.90;;
37903;SDS011;23738;50.422;18.758;2023-03-29T06:41:11;71.90;;;31.50;;
37903;SDS011;23738;50.422;18.758;2023-03-29T06:43:41;72.10;;;29.10;;
37903;SDS011;23738;50.422;18.758;2023-03-29T06:46:11;72.90;;;29.50;;
37903;SDS011;23738;50.422;18.758;2023-03-29T06:48:40;80.80;;;30.40;;
37903;SDS011;23738;50.422;18.758;2023-03-29T06:51:10;70.40;;;30.70;;
37903;SDS011;23738;50.422;18.758;2023-03-29T06:53:39;85.10;;;33.40;;
37903;SDS011;23738;50.422;18.758;2023-03-29T06:56:09;76.70;;;34.30;;
37903;SDS011;23738;50.422;18.758;2023-03-29T06:58:38;80.40;;;33.40;;
37903;SDS011;23738;50.422;18.758;2023-03-29T07:01:08;74.30;;;32.30;;
37903;SDS011;23738;50.422;18.758;2023-03-29T07:03:37;70.70;;;31.50;;
37903;SDS011;23738;50.422;18.758;2023-03-29T07:06:07;67.20;;;29.40;;
37903;SDS011;23738;50.422;18.758;2023-03-29T07:08:38;70.40;;;30.40;;
37903;SDS011;23738;50.422;18.758;2023-03-29T07:11:10;60.90;;;29.40;;
37903;SDS011;23738;50.422;18.758;2023-03-29T07:13:42;68.20;;;27.90;;
37903;SDS011;23738;50.422;18.758;2023-03-29T07:16:11;59.50;;;28.20;;
37903;SDS011;23738;50.422;18.758;2023-03-29T07:18:42;55.50;;;25.70;;
37903;SDS011;23738;50.422;18.758;2023-03-29T07:21:12;49.10;;;25.00;;
37903;SDS011;23738;50.422;18.758;2023-03-29T07:23:41;60.00;;;24.40;;
37903;SDS011;23738;50.422;18.758;2023-03-29T07:26:11;65.40;;;25.90;;
37903;SDS011;23738;50.422;18.758;2023-03-29T07:28:41;62.50;;;27.70;;
37903;SDS011;23738;50.422;18.758;2023-03-29T07:31:11;55.60;;;24.60;;
37903;SDS011;23738;50.422;18.758;2023-03-29T07:33:40;59.80;;;25.50;;
37903;SDS011;23738;50.422;18.758;2023-03-29T07:36:10;55.90;;;24.00;;
37903;SDS011;23738;50.422;18.758;2023-03-29T07:38:40;49.80;;;23.70;;
37903;SDS011;23738;50.422;18.758;2023-03-29T07:41:10;48.60;;;21.70;;
37903;SDS011;23738;50.422;18.758;2023-03-29T07:43:39;48.50;;;22.70;;
37903;SDS011;23738;50.422;18.758;2023-03-29T07:46:08;48.20;;;20.00;;
37903;SDS011;23738;50.422;18.758;2023-03-29T07:48:38;39.50;;;18.30;;
37903;SDS011;23738;50.422;18.758;2023-03-29T07:51:07;35.00;;;16.40;;
37903;SDS011;23738;50.422;18.758;2023-03-29T07:53:37;37.00;;;17.20;;
37903;SDS011;23738;50.422;18.758;2023-03-29T07:56:07;29.70;;;14.80;;
37903;SDS011;23738;50.422;18.758;2023-03-29T07:58:36;30.00;;;16.40;;
37903;SDS011;23738;50.422;18.758;2023-03-29T08:01:06;32.90;;;13.50;;
37903;SDS011;23738;50.422;18.758;2023-03-29T08:03:36;32.00;;;15.70;;
37903;SDS011;23738;50.422;18.758;2023-03-29T08:06:06;27.10;;;14.10;;
37903;SDS011;23738;50.422;18.758;2023-03-29T08:08:36;30.40;;;14.70;;
37903;SDS011;23738;50.422;18.758;2023-03-29T08:11:05;25.30;;;13.30;;
37903;SDS011;23738;50.422;18.758;2023-03-29T08:13:35;21.40;;;12.90;;
37903;SDS011;23738;50.422;18.758;2023-03-29T08:16:06;22.70;;;12.30;;
37903;SDS011;23738;50.422;18.758;2023-03-29T08:18:36;22.40;;;11.70;;
37903;SDS011;23738;50.422;18.758;2023-03-29T08:21:06;20.50;;;12.30;;
37903;SDS011;23738;50.422;18.758;2023-03-29T08:23:36;20.50;;;10.80;;
37903;SDS011;23738;50.422;18.758;2023-03-29T08:26:06;18.80;;;11.40;;
37903;SDS011;23738;50.422;18.758;2023-03-29T08:28:35;18.00;;;11.40;;
37903;SDS011;23738;50.422;18.758;2023-03-29T08:31:05;15.40;;;9.60;;
37903;SDS011;23738;50.422;18.758;2023-03-29T08:33:35;18.80;;;9.50;;
37903;SDS011;23738;50.422;18.758;2023-03-29T08:36:05;17.30;;;10.00;;
37903;SDS011;23738;50.422;18.758;2023-03-29T08:38:35;19.20;;;9.80;;
37903;SDS011;23738;50.422;18.758;2023-03-29T08:41:10;14.30;;;8.70;;
37903;SDS011;23738;50.422;18.758;2023-03-29T08:44:00;14.00;;;8.90;;
37903;SDS011;23738;50.422;18.758;2023-03-29T08:46:43;16.70;;;9.10;;
37903;SDS011;23738;50.422;18.758;2023-03-29T08:49:18;14.80;;;8.50;;
37903;SDS011;23738;50.422;18.758;2023-03-29T08:51:48;12.40;;;8.10;;
37903;SDS011;23738;50.422;18.758;2023-03-29T08:54:24;11.30;;;7.70;;
37903;SDS011;23738;50.422;18.758;2023-03-29T08:56:57;11.60;;;8.10;;
37903;SDS011;23738;50.422;18.758;2023-03-29T08:59:32;13.50;;;7.30;;
37903;SDS011;23738;50.422;18.758;2023-03-29T09:02:03;12.30;;;7.10;;
37903;SDS011;23738;50.422;18.758;2023-03-29T09:04:43;9.40;;;6.40;;
37903;SDS011;23738;50.422;18.758;2023-03-29T09:07:14;6.50;;;4.10;;
37903;SDS011;23738;50.422;18.758;2023-03-29T09:09:43;4.50;;;2.80;;
37903;SDS011;23738;50.422;18.758;2023-03-29T09:12:15;5.10;;;3.20;;
37903;SDS011;23738;50.422;18.758;2023-03-29T09:14:58;5.10;;;3.10;;
37903;SDS011;23738;50.422;18.758;2023-03-29T09:17:40;6.60;;;3.40;;
37903;SDS011;23738;50.422;18.758;2023-03-29T09:20:20;5.70;;;3.10;;
37903;SDS011;23738;50.422;18.758;2023-03-29T19:02:29;36.30;;;16.50;;
37903;SDS011;23738;50.422;18.758;2023-03-29T19:04:56;35.90;;;17.50;;
37903;SDS011;23738;50.422;18.758;2023-03-29T19:07:23;38.30;;;17.00;;
37903;SDS011;23738;50.422;18.758;2023-03-29T19:09:50;39.00;;;17.70;;
37903;SDS011;23738;50.422;18.758;2023-03-29T19:12:17;29.80;;;16.20;;
37903;SDS011;23738;50.422;18.758;2023-03-29T19:14:45;33.30;;;15.80;;
37903;SDS011;23738;50.422;18.758;2023-03-29T19:17:12;31.60;;;17.50;;
37903;SDS011;23738;50.422;18.758;2023-03-29T19:19:39;37.40;;;18.50;;
37903;SDS011;23738;50.422;18.758;2023-03-29T19:22:06;36.00;;;17.70;;
37903;SDS011;23738;50.422;18.758;2023-03-29T19:24:33;29.70;;;15.80;;
37903;SDS011;23738;50.422;18.758;2023-03-29T19:27:00;39.10;;;15.70;;
37903;SDS011;23738;50.422;18.758;2023-03-29T19:29:28;32.30;;;15.90;;
37903;SDS011;23738;50.422;18.758;2023-03-29T19:31:55;31.00;;;14.10;;
37903;SDS011;23738;50.422;18.758;2023-03-29T19:34:23;30.00;;;13.80;;
37903;SDS011;23738;50.422;18.758;2023-03-29T19:36:51;30.00;;;14.50;;
37903;SDS011;23738;50.422;18.758;2023-03-29T19:39:20;24.90;;;13.80;;
37903;SDS011;23738;50.422;18.758;2023-03-29T19:41:47;30.30;;;14.60;;
37903;SDS011;23738;50.422;18.758;2023-03-29T19:44:15;29.50;;;14.30;;
37903;SDS011;23738;50.422;18.758;2023-03-29T19:46:42;26.20;;;13.50;;
37903;SDS011;23738;50.422;18.758;2023-03-29T19:49:09;23.80;;;13.20;;
37903;SDS011;23738;50.422;18.758;2023-03-29T19:51:38;29.20;;;14.00;;
37903;SDS011;23738;50.422;18.758;2023-03-29T19:54:05;24.60;;;13.30;;
37903;SDS011;23738;50.422;18.758;2023-03-29T19:56:33;27.60;;;13.70;;
37903;SDS011;23738;50.422;18.758;2023-03-29T19:59:00;23.70;;;12.40;;
37903;SDS011;23738;50.422;18.758;2023-03-29T20:01:27;28.10;;;14.80;;
37903;SDS011;23738;50.422;18.758;2023-03-29T20:03:57;24.70;;;12.80;;
37903;SDS011;23738;50.422;18.758;2023-03-29T20:06:24;30.60;;;14.50;;
37903;SDS011;23738;50.422;18.758;2023-03-29T20:08:51;30.60;;;15.60;;
37903;SDS011;23738;50.422;18.758;2023-03-29T20:11:20;26.80;;;13.50;;
37903;SDS011;23738;50.422;18.758;2023-03-29T20:13:49;26.90;;;14.20;;
37903;SDS011;23738;50.422;18.758;2023-03-29T20:16:16;30.60;;;15.40;;
37903;SDS011;23738;50.422;18.758;2023-03-29T20:18:44;29.80;;;15.30;;
37903;SDS011;23738;50.422;18.758;2023-03-29T20:21:12;31.30;;;14.30;;
37903;SDS011;23738;50.422;18.758;2023-03-29T20:23:41;31.70;;;15.90;;
37903;SDS011;23738;50.422;18.758;2023-03-29T20:26:08;35.30;;;15.90;;
37903;SDS011;23738;50.422;18.758;2023-03-29T20:28:35;31.20;;;16.10;;
37903;SDS011;23738;50.422;18.758;2023-03-29T20:31:03;25.10;;;13.80;;
37903;SDS011;23738;50.422;18.758;2023-03-29T20:33:31;30.40;;;13.40;;
37903;SDS011;23738;50.422;18.758;2023-03-29T20:35:59;31.10;;;13.70;;
37903;SDS011;23738;50.422;18.758;2023-03-29T20:38:26;30.40;;;14.40;;
37903;SDS011;23738;50.422;18.758;2023-03-29T20:40:53;32.60;;;15.00;;
37903;SDS011;23738;50.422;18.758;2023-03-29T20:43:20;34.80;;;15.90;;
37903;SDS011;23738;50.422;18.758;2023-03-29T20:45:49;31.80;;;14.40;;
37903;SDS011;23738;50.422;18.758;2023-03-29T20:48:16;26.70;;;14.30;;
37903;SDS011;23738;50.422;18.758;2023-03-29T20:50:46;30.10;;;13.10;;
37903;SDS011;23738;50.422;18.758;2023-03-29T20:53:14;27.00;;;13.80;;
37903;SDS011;23738;50.422;18.758;2023-03-29T20:55:42;27.50;;;15.10;;
37903;SDS011;23738;50.422;18.758;2023-03-29T20:58:10;38.70;;;14.20;;
37903;SDS011;23738;50.422;18.758;2023-03-29T21:00:37;33.20;;;15.20;;
37903;SDS011;23738;50.422;18.758;2023-03-29T21:03:05;21.10;;;11.90;;
37903;SDS011;23738;50.422;18.758;2023-03-29T21:05:33;24.80;;;12.50;;
37903;SDS011;23738;50.422;18.758;2023-03-29T21:08:00;24.50;;;12.30;;
37903;SDS011;23738;50.422;18.758;2023-03-29T21:10:28;27.00;;;12.60;;
37903;SDS011;23738;50.422;18.758;2023-03-29T21:12:56;24.30;;;11.70;;
37903;SDS011;23738;50.422;18.758;2023-03-29T21:15:25;22.70;;;12.30;;
37903;SDS011;23738;50.422;18.758;2023-03-29T21:17:54;25.00;;;11.90;;
37903;SDS011;23738;50.422;18.758;2023-03-29T21:20:22;27.50;;;13.30;;
37903;SDS011;23738;50.422;18.758;2023-03-29T21:22:49;32.40;;;14.40;;
37903;SDS011;23738;50.422;18.758;2023-03-29T21:25:17;26.00;;;12.20;;
37903;SDS011;23738;50.422;18.758;2023-03-29T21:27:44;26.00;;;12.50;;
37903;SDS011;23738;50.422;18.758;2023-03-29T21:30:12;29.10;;;12.60;;
37903;SDS011;23738;50.422;18.758;2023-03-29T21:32:40;20.20;;;11.40;;
37903;SDS011;23738;50.422;18.758;2023-03-29T21:35:09;25.20;;;11.20;;
37903;SDS011;23738;50.422;18.758;2023-03-29T21:37:37;20.20;;;10.80;;
37903;SDS011;23738;50.422;18.758;2023-03-29T21:40:05;18.00;;;10.20;;
37903;SDS011;23738;50.422;18.758;2023-03-29T21:42:35;14.40;;;8.70;;
37903;SDS011;23738;50.422;18.758;2023-03-29T21:45:03;14.40;;;8.00;;
37903;SDS011;23738;50.422;18.758;2023-03-29T21:47:31;10.50;;;7.10;;
37903;SDS011;23738;50.422;18.758;2023-03-29T21:49:59;12.40;;;7.60;;
37903;SDS011;23738;50.422;18.758;2023-03-29T21:52:26;14.20;;;8.20;;
37903;SDS011;23738;50.422;18.758;2023-03-29T21:54:53;11.70;;;6.90;;
37903;SDS011;23738;50.422;18.758;2023-03-29T21:57:20;14.20;;;7.60;;
37903;SDS011;23738;50.422;18.758;2023-03-29T21:59:48;10.50;;;6.80;;
37903;SDS011;23738;50.422;18.758;2023-03-29T22:02:15;10.00;;;6.60;;
37903;SDS011;23738;50.422;18.758;2023-03-29T22:04:42;13.50;;;7.20;;
37903;SDS011;23738;50.422;18.758;2023-03-29T22:07:10;12.30;;;6.30;;
37903;SDS011;23738;50.422;18.758;2023-03-29T22:09:37;9.40;;;6.30;;
37903;SDS011;23738;50.422;18.758;2023-03-29T22:12:06;11.30;;;5.80;;
37903;SDS011;23738;50.422;18.758;2023-03-29T22:14:34;15.00;;;6.60;;
37903;SDS011;23738;50.422;18.758;2023-03-29T22:17:02;9.90;;;6.90;;
37903;SDS011;23738;50.422;18.758;2023-03-29T22:19:31;10.30;;;5.80;;
37903;SDS011;23738;50.422;18.758;2023-03-29T22:22:03;13.80;;;7.50;;
37903;SDS011;23738;50.422;18.758;2023-03-29T22:24:31;15.80;;;7.80;;
37903;SDS011;23738;50.422;18.758;2023-03-29T22:26:58;14.60;;;7.60;;
37903;SDS011;23738;50.422;18.758;2023-03-29T22:29:26;11.30;;;6.90;;
37903;SDS011;23738;50.422;18.758;2023-03-29T22:31:53;15.20;;;6.70;;
37903;SDS011;23738;50.422;18.758;2023-03-29T22:34:21;8.60;;;5.80;;
37903;SDS011;23738;50.422;18.758;2023-03-29T22:36:48;10.40;;;7.10;;
37903;SDS011;23738;50.422;18.758;2023-03-29T22:39:16;10.90;;;6.50;;
37903;SDS011;23738;50.422;18.758;2023-03-29T22:41:43;9.40;;;6.10;;
37903;SDS011;23738;50.422;18.758;2023-03-29T22:44:11;8.20;;;5.50;;
37903;SDS011;23738;50.422;18.758;2023-03-29T22:46:38;7.20;;;4.40;;
37903;SDS011;23738;50.422;18.758;2023-03-29T22:49:06;6.20;;;4.90;;
37903;SDS011;23738;50.422;18.758;2023-03-29T22:51:33;7.80;;;5.30;;
37903;SDS011;23738;50.422;18.758;2023-03-29T22:54:00;6.80;;;5.00;;
37903;SDS011;23738;50.422;18.758;2023-03-29T22:56:27;8.00;;;5.40;;
37903;SDS011;23738;50.422;18.758;2023-03-29T22:58:55;8.00;;;5.20;;
37903;SDS011;23738;50.422;18.758;2023-03-29T23:01:22;8.50;;;5.30;;
37903;SDS011;23738;50.422;18.758;2023-03-29T23:03:49;13.10;;;5.20;;
37903;SDS011;23738;50.422;18.758;2023-03-29T23:06:16;7.00;;;4.50;;
37903;SDS011;23738;50.422;18.758;2023-03-29T23:08:44;6.50;;;4.50;;
37903;SDS011;23738;50.422;18.758;2023-03-29T23:11:11;6.30;;;4.00;;
37903;SDS011;23738;50.422;18.758;2023-03-29T23:13:38;7.90;;;5.00;;
37903;SDS011;23738;50.422;18.758;2023-03-29T23:16:06;7.40;;;4.70;;
37903;SDS011;23738;50.422;18.758;2023-03-29T23:18:34;7.20;;;5.10;;
37903;SDS011;23738;50.422;18.758;2023-03-29T23:21:02;9.10;;;4.50;;
37903;SDS011;23738;50.422;18.758;2023-03-29T23:23:30;7.20;;;4.40;;
37903;SDS011;23738;50.422;18.758;2023-03-29T23:25:57;11.60;;;4.70;;
37903;SDS011;23738;50.422;18.758;2023-03-29T23:28:25;6.50;;;4.30;;
37903;SDS011;23738;50.422;18.758;2023-03-29T23:30:55;8.50;;;5.50;;
37903;SDS011;23738;50.422;18.758;2023-03-29T23:33:25;8.50;;;5.10;;
37903;SDS011;23738;50.422;18.758;2023-03-29T23:35:53;7.10;;;4.60;;
37903;SDS011;23738;50.422;18.758;2023-03-29T23:38:20;7.90;;;4.30;;
37903;SDS011;23738;50.422;18.758;2023-03-29T23:40:52;5.30;;;4.00;;
37903;SDS011;23738;50.422;18.758;2023-03-29T23:43:23;4.70;;;3.30;;
37903;SDS011;23738;50.422;18.758;2023-03-29T23:45:56;7.10;;;4.00;;
37903;SDS011;23738;50.422;18.758;2023-03-29T23:48:25;6.30;;;3.80;;
37903;SDS011;23738;50.422;18.758;2023-03-29T23:50:53;5.60;;;3.80;;
37903;SDS011;23738;50.422;18.758;2023-03-29T23:53:22;6.10;;;3.90;;
37903;SDS011;23738;50.422;18.758;2023-03-29T23:55:50;12.50;;;3.80;;
37903;SDS011;23738;50.422;18.758;2023-03-29T23:58:20;5.90;;;3.70;;
